Time,TemperatureF,DewpointF,PressureIn,WindDirection,WindDirectionDegrees,WindSpeedMPH,WindSpeedGustMPH,Humidity,HourlyPrecipIn,Conditions,Clouds,dailyrainin,SoftwareType,DateUTC
2013-02-08 00:02:00,34.0,34.0,29.90,SW,230,1.0,5.0,99,0.00,,,0.46,,2013-02-08 05:02:00,
2013-02-08 00:12:00,34.0,34.0,29.90,SW,230,1.0,5.0,99,0.00,,,0.46,,2013-02-08 05:12:00,
2013-02-08 00:22:00,34.0,34.0,29.89,NW,304,1.0,7.0,99,0.00,,,0.46,,2013-02-08 05:22:00,
2013-02-08 00:32:00,34.0,34.0,29.89,South,186,1.0,6.0,99,0.00,,,0.46,,2013-02-08 05:32:00,
2013-02-08 00:42:00,34.0,34.0,29.89,South,186,1.0,6.0,99,0.00,,,0.46,,2013-02-08 05:42:00,
2013-02-08 00:52:00,34.0,34.0,29.88,NNW,333,2.0,5.0,99,0.00,,,0.46,,2013-02-08 05:52:00,
2013-02-08 01:01:00,34.0,34.0,29.87,WNW,303,0.0,6.0,99,0.00,,,0.46,,2013-02-08 06:01:00,
2013-02-08 01:11:00,34.0,34.0,29.87,WNW,303,0.0,6.0,99,0.00,,,0.46,,2013-02-08 06:11:00,
2013-02-08 01:21:00,34.0,34.0,29.87,North,355,2.0,9.0,99,0.00,,,0.46,,2013-02-08 06:21:00,
2013-02-08 01:32:00,34.0,34.0,29.86,NNW,332,0.0,14.0,99,0.00,,,0.46,,2013-02-08 06:32:00,
2013-02-08 01:42:00,34.0,34.0,29.86,NNW,332,0.0,14.0,99,0.00,,,0.46,,2013-02-08 06:42:00,
2013-02-08 01:52:00,34.0,34.0,29.85,South,179,2.0,9.0,99,0.00,,,0.46,,2013-02-08 06:52:00,
2013-02-08 02:01:00,34.0,34.0,29.84,SSE,150,0.0,4.0,99,0.00,,,0.46,,2013-02-08 07:01:00,
2013-02-08 02:11:00,34.0,34.0,29.84,SSE,150,0.0,4.0,99,0.00,,,0.46,,2013-02-08 07:11:00,
2013-02-08 02:22:00,34.0,34.0,29.84,SE,142,1.0,5.0,99,0.00,,,0.46,,2013-02-08 07:22:00,
2013-02-08 02:32:00,34.0,34.0,29.83,North,5,1.0,6.0,99,0.00,,,0.46,,2013-02-08 07:32:00,
2013-02-08 02:42:00,34.0,34.0,29.84,SW,225,1.0,5.0,99,0.00,,,0.46,,2013-02-08 07:42:00,
2013-02-08 02:52:00,34.0,34.0,29.84,SW,225,1.0,5.0,99,0.00,,,0.46,,2013-02-08 07:52:00,
2013-02-08 03:01:00,34.0,34.0,29.84,WNW,300,0.0,2.0,99,0.00,,,0.46,,2013-02-08 08:01:00,
2013-02-08 03:11:00,35.0,35.0,29.83,North,5,0.0,3.0,99,0.01,,,0.47,,2013-02-08 08:11:00,
2013-02-08 03:21:00,35.0,35.0,29.83,North,5,0.0,3.0,99,0.01,,,0.47,,2013-02-08 08:21:00,
2013-02-08 03:32:00,35.0,35.0,29.83,North,11,0.0,3.0,99,0.01,,,0.47,,2013-02-08 08:32:00,
2013-02-08 03:42:00,35.0,35.0,29.83,North,11,0.0,3.0,99,0.01,,,0.47,,2013-02-08 08:42:00,
2013-02-08 03:52:00,35.0,35.0,29.82,ENE,59,2.0,6.0,99,0.01,,,0.47,,2013-02-08 08:52:00,
2013-02-08 04:03:00,35.0,35.0,29.83,NNE,26,0.0,3.0,99,0.01,,,0.47,,2013-02-08 09:03:00,
2013-02-08 04:11:00,35.0,35.0,29.83,NNE,26,0.0,3.0,99,0.01,,,0.47,,2013-02-08 09:11:00,
2013-02-08 04:21:00,35.0,35.0,29.82,North,11,0.0,4.0,99,0.00,,,0.47,,2013-02-08 09:21:00,
2013-02-08 04:32:00,35.0,35.0,29.82,NE,36,0.0,1.0,99,0.00,,,0.47,,2013-02-08 09:32:00,
2013-02-08 04:42:00,35.0,35.0,29.82,NE,36,0.0,1.0,99,0.00,,,0.47,,2013-02-08 09:42:00,
2013-02-08 04:52:00,36.0,36.0,29.83,NE,36,0.0,3.0,99,0.00,,,0.47,,2013-02-08 09:52:00,
2013-02-08 05:01:00,36.0,36.0,29.83,NE,41,1.0,3.0,99,0.00,,,0.47,,2013-02-08 10:01:00,
2013-02-08 05:12:00,36.0,36.0,29.83,NE,41,1.0,3.0,99,0.00,,,0.47,,2013-02-08 10:12:00,
2013-02-08 05:22:00,35.0,35.0,29.82,NE,36,3.0,6.0,99,0.00,,,0.47,,2013-02-08 10:22:00,
2013-02-08 05:32:00,36.0,36.0,29.82,NE,37,0.0,4.0,99,0.00,,,0.47,,2013-02-08 10:32:00,
2013-02-08 05:42:00,36.0,36.0,29.82,NE,37,0.0,4.0,99,0.00,,,0.47,,2013-02-08 10:42:00,
2013-02-08 05:52:00,36.0,36.0,29.82,NE,38,0.0,3.0,99,0.00,,,0.47,,2013-02-08 10:52:00,
2013-02-08 06:01:00,36.0,36.0,29.82,NE,38,0.0,4.0,99,0.00,,,0.47,,2013-02-08 11:01:00,
2013-02-08 06:11:00,36.0,36.0,29.82,NE,38,0.0,4.0,99,0.00,,,0.47,,2013-02-08 11:11:00,
2013-02-08 06:22:00,36.0,36.0,29.82,NE,38,0.0,1.0,99,0.00,,,0.47,,2013-02-08 11:22:00,
2013-02-08 06:32:00,35.0,35.0,29.81,NNE,31,3.0,5.0,99,0.00,,,0.47,,2013-02-08 11:32:00,
2013-02-08 06:42:00,35.0,35.0,29.81,NNE,31,3.0,5.0,99,0.00,,,0.47,,2013-02-08 11:42:00,
2013-02-08 06:52:00,36.0,36.0,29.81,NNE,31,0.0,1.0,99,0.00,,,0.47,,2013-02-08 11:52:00,
2013-02-08 07:02:00,36.0,36.0,29.81,NNE,31,0.0,1.0,99,0.00,,,0.47,,2013-02-08 12:02:00,
2013-02-08 07:11:00,36.0,36.0,29.81,NNE,31,0.0,1.0,99,0.00,,,0.47,,2013-02-08 12:11:00,
2013-02-08 07:22:00,35.0,35.0,29.81,West,265,1.0,4.0,99,0.00,,,0.47,,2013-02-08 12:22:00,
2013-02-08 07:33:00,36.0,36.0,29.81,SSW,212,0.0,3.0,99,0.00,,,0.47,,2013-02-08 12:33:00,
2013-02-08 07:42:00,36.0,36.0,29.81,SSW,212,0.0,3.0,99,0.00,,,0.47,,2013-02-08 12:42:00,
2013-02-08 07:52:00,37.0,37.0,29.81,West,277,0.0,7.0,99,0.00,,,0.47,,2013-02-08 12:52:00,
2013-02-08 08:02:00,36.0,36.0,29.82,WNW,303,2.0,10.0,99,0.00,,,0.47,,2013-02-08 13:02:00,
2013-02-08 08:12:00,36.0,36.0,29.82,WNW,303,2.0,10.0,99,0.00,,,0.47,,2013-02-08 13:12:00,
2013-02-08 08:22:00,37.0,37.0,29.82,WNW,289,2.0,7.0,99,0.00,,,0.47,,2013-02-08 13:22:00,
2013-02-08 08:32:00,35.0,35.0,29.83,SW,234,6.0,9.0,99,0.00,,,0.47,,2013-02-08 13:32:00,
2013-02-08 08:42:00,35.0,35.0,29.83,SW,234,6.0,9.0,99,0.00,,,0.47,,2013-02-08 13:42:00,
2013-02-08 08:52:00,35.0,35.0,29.83,WSW,244,6.0,11.0,99,0.00,,,0.47,,2013-02-08 13:52:00,
2013-02-08 09:02:00,35.0,35.0,29.83,SW,236,5.0,8.0,99,0.00,,,0.47,,2013-02-08 14:02:00,
2013-02-08 09:11:00,35.0,35.0,29.83,SW,236,5.0,8.0,99,0.00,,,0.47,,2013-02-08 14:11:00,
2013-02-08 09:22:00,36.0,36.0,29.83,West,261,2.0,6.0,99,0.00,,,0.47,,2013-02-08 14:22:00,
2013-02-08 09:32:00,36.0,36.0,29.83,WSW,254,2.0,7.0,99,0.00,,,0.47,,2013-02-08 14:32:00,
2013-02-08 09:42:00,36.0,36.0,29.83,WSW,254,2.0,7.0,99,0.00,,,0.47,,2013-02-08 14:42:00,
2013-02-08 09:52:00,36.0,36.0,29.83,West,262,4.0,9.0,99,0.00,,,0.47,,2013-02-08 14:52:00,
2013-02-08 10:02:00,37.0,37.0,29.84,WNW,287,6.0,8.0,99,0.00,,,0.47,,2013-02-08 15:02:00,
2013-02-08 10:12:00,37.0,37.0,29.84,WNW,287,6.0,8.0,99,0.00,,,0.47,,2013-02-08 15:12:00,
2013-02-08 10:22:00,39.0,39.0,29.84,WSW,257,4.0,9.0,99,0.00,,,0.47,,2013-02-08 15:22:00,
2013-02-08 10:32:00,40.0,40.0,29.84,WNW,295,6.0,11.0,99,0.00,,,0.47,,2013-02-08 15:32:00,
2013-02-08 10:42:00,40.0,40.0,29.84,WNW,295,6.0,11.0,99,0.00,,,0.47,,2013-02-08 15:42:00,
2013-02-08 10:52:00,42.0,42.0,29.84,WNW,294,5.0,10.0,99,0.00,,,0.47,,2013-02-08 15:52:00,
2013-02-08 11:01:00,43.0,43.0,29.85,West,278,6.0,10.0,100,0.00,,,0.47,,2013-02-08 16:01:00,
2013-02-08 11:11:00,43.0,43.0,29.85,West,278,6.0,10.0,100,0.00,,,0.47,,2013-02-08 16:11:00,
2013-02-08 11:22:00,41.0,41.0,29.85,WNW,282,4.0,16.0,99,0.00,,,0.47,,2013-02-08 16:22:00,
2013-02-08 11:32:00,44.0,44.0,29.85,NW,325,6.0,13.0,100,0.00,,,0.47,,2013-02-08 16:32:00,
2013-02-08 11:42:00,44.0,44.0,29.85,NW,325,6.0,13.0,100,0.00,,,0.47,,2013-02-08 16:42:00,
2013-02-08 11:52:00,45.0,45.0,29.85,WSW,243,7.0,21.0,99,0.00,,,0.47,,2013-02-08 16:52:00,
2013-02-08 12:04:00,43.0,43.0,29.83,West,274,10.0,17.0,100,0.00,,,0.47,,2013-02-08 17:04:00,
2013-02-08 12:12:00,43.0,43.0,29.83,West,274,10.0,17.0,100,0.00,,,0.47,,2013-02-08 17:12:00,
2013-02-08 12:23:00,43.0,43.0,29.84,WNW,293,8.0,20.0,99,0.00,,,0.47,,2013-02-08 17:23:00,
2013-02-08 12:33:00,43.0,43.0,29.83,West,281,6.0,17.0,99,0.00,,,0.47,,2013-02-08 17:33:00,
2013-02-08 12:42:00,43.0,43.0,29.83,West,281,6.0,17.0,99,0.00,,,0.47,,2013-02-08 17:42:00,
2013-02-08 12:53:00,43.0,43.0,29.84,West,269,7.0,14.0,100,0.00,,,0.47,,2013-02-08 17:53:00,
2013-02-08 13:02:00,42.0,42.0,29.83,NW,312,6.0,13.0,99,0.00,,,0.47,,2013-02-08 18:02:00,
2013-02-08 13:12:00,42.0,42.0,29.83,NW,312,6.0,13.0,99,0.00,,,0.47,,2013-02-08 18:12:00,
2013-02-08 13:25:00,41.0,41.0,29.82,NW,306,7.0,21.0,99,0.00,,,0.47,,2013-02-08 18:25:00,
2013-02-08 13:35:00,42.0,42.0,29.82,WNW,298,7.0,17.0,99,0.00,,,0.44,,2013-02-08 18:35:00,
2013-02-08 13:43:00,42.0,42.0,29.82,WNW,298,7.0,17.0,99,0.00,,,0.44,,2013-02-08 18:43:00,
2013-02-08 13:53:00,42.0,42.0,29.81,NW,304,7.0,15.0,99,0.00,,,0.44,,2013-02-08 18:53:00,
2013-02-08 14:02:00,41.0,41.0,29.81,West,277,6.0,16.0,99,0.00,,,0.44,,2013-02-08 19:02:00,
2013-02-08 14:11:00,41.0,41.0,29.81,West,277,6.0,16.0,99,0.00,,,0.44,,2013-02-08 19:11:00,
2013-02-08 14:22:00,41.0,41.0,29.81,NNW,330,5.0,22.0,99,0.00,,,0.44,,2013-02-08 19:22:00,
2013-02-08 14:32:00,41.0,41.0,29.81,NNW,345,7.0,12.0,99,0.00,,,0.38,,2013-02-08 19:32:00,
2013-02-08 14:42:00,41.0,41.0,29.81,NNW,345,7.0,12.0,99,0.00,,,0.38,,2013-02-08 19:42:00,
2013-02-08 14:52:00,41.0,39.0,29.81,NW,307,5.0,19.0,94,0.00,,,0.38,,2013-02-08 19:52:00,
2013-02-08 15:02:00,40.0,37.0,29.81,NNW,337,6.0,19.0,90,0.00,,,0.38,,2013-02-08 20:02:00,
2013-02-08 15:12:00,40.0,37.0,29.81,NNW,337,6.0,19.0,90,0.00,,,0.38,,2013-02-08 20:12:00,
2013-02-08 15:22:00,41.0,38.0,29.81,North,5,4.0,18.0,88,0.00,,,0.38,,2013-02-08 20:22:00,
2013-02-08 15:32:00,44.0,41.0,29.82,WSW,251,6.0,17.0,88,0.00,,,0.35,,2013-02-08 20:32:00,
2013-02-08 15:42:00,44.0,41.0,29.82,WSW,251,6.0,17.0,88,0.00,,,0.35,,2013-02-08 20:42:00,
2013-02-08 15:52:00,44.0,37.0,29.82,NNW,332,8.0,20.0,77,0.00,,,0.35,,2013-02-08 20:52:00,
2013-02-08 16:02:00,44.0,38.0,29.83,NNW,335,5.0,18.0,79,0.00,,,0.35,,2013-02-08 21:02:00,
2013-02-08 16:12:00,44.0,38.0,29.83,NNW,335,5.0,18.0,79,0.00,,,0.35,,2013-02-08 21:12:00,
2013-02-08 16:22:00,44.0,36.0,29.84,WNW,298,7.0,14.0,74,0.00,,,0.35,,2013-02-08 21:22:00,
2013-02-08 16:32:00,42.0,33.0,29.83,NW,315,8.0,17.0,71,0.00,,,0.34,,2013-02-08 21:32:00,
2013-02-08 16:42:00,42.0,33.0,29.83,NW,315,8.0,17.0,71,0.00,,,0.34,,2013-02-08 21:42:00,
2013-02-08 16:52:00,43.0,35.0,29.84,North,9,8.0,14.0,72,0.00,,,0.34,,2013-02-08 21:52:00,
2013-02-08 17:02:00,41.0,32.0,29.85,NW,322,7.0,19.0,71,0.00,,,0.34,,2013-02-08 22:02:00,
2013-02-08 17:11:00,41.0,32.0,29.85,NW,322,7.0,19.0,71,0.00,,,0.34,,2013-02-08 22:11:00,
2013-02-08 17:22:00,40.0,30.0,29.85,NNW,333,8.0,22.0,68,0.00,,,0.34,,2013-02-08 22:22:00,
2013-02-08 17:32:00,39.0,30.0,29.85,NW,311,9.0,18.0,70,0.00,,,0.31,,2013-02-08 22:32:00,
2013-02-08 17:42:00,39.0,30.0,29.85,NW,311,9.0,18.0,70,0.00,,,0.31,,2013-02-08 22:42:00,
2013-02-08 17:52:00,38.0,28.0,29.85,NW,321,10.0,18.0,68,0.00,,,0.31,,2013-02-08 22:52:00,
2013-02-08 18:01:00,38.0,28.0,29.85,NW,317,12.0,16.0,68,0.00,,,0.31,,2013-02-08 23:01:00,
2013-02-08 18:11:00,38.0,28.0,29.85,NW,317,12.0,16.0,68,0.00,,,0.31,,2013-02-08 23:11:00,
2013-02-08 18:22:00,37.0,28.0,29.85,North,360,8.0,15.0,70,0.00,,,0.31,,2013-02-08 23:22:00,
2013-02-08 18:32:00,35.0,27.0,29.86,NW,326,6.0,14.0,73,0.00,,,0.27,,2013-02-08 23:32:00,
2013-02-08 18:42:00,35.0,27.0,29.86,NW,326,6.0,14.0,73,0.00,,,0.27,,2013-02-08 23:42:00,
2013-02-08 18:52:00,35.0,28.0,29.88,NW,313,3.0,15.0,76,0.00,,,0.27,,2013-02-08 23:52:00,
2013-02-08 19:02:00,34.0,28.0,29.88,South,173,1.0,8.0,78,0.00,,,0.27,,2013-02-09 00:02:00,
2013-02-08 19:11:00,34.0,28.0,29.88,South,173,1.0,8.0,78,0.00,,,0.27,,2013-02-09 00:11:00,
2013-02-08 19:22:00,33.0,28.0,29.89,NNE,31,4.0,13.0,81,0.00,,,0.27,,2013-02-09 00:22:00,
2013-02-08 19:32:00,33.0,28.0,29.90,NW,306,2.0,6.0,82,0.00,,,0.20,,2013-02-09 00:32:00,
2013-02-08 19:42:00,33.0,28.0,29.90,NW,306,2.0,6.0,82,0.00,,,0.20,,2013-02-09 00:42:00,
2013-02-08 19:52:00,32.0,27.0,29.90,SE,136,1.0,10.0,82,0.00,,,0.20,,2013-02-09 00:52:00,
2013-02-08 20:02:00,32.0,27.0,29.91,SE,139,3.0,9.0,83,0.00,,,0.20,,2013-02-09 01:02:00,
2013-02-08 20:11:00,32.0,27.0,29.91,SE,139,3.0,9.0,83,0.00,,,0.20,,2013-02-09 01:11:00,
2013-02-08 20:22:00,32.0,27.0,29.91,SSW,213,3.0,7.0,82,0.00,,,0.20,,2013-02-09 01:22:00,
2013-02-08 20:32:00,31.0,26.0,29.91,West,263,2.0,11.0,83,0.00,,,0.12,,2013-02-09 01:32:00,
2013-02-08 20:42:00,31.0,26.0,29.91,West,263,2.0,11.0,83,0.00,,,0.12,,2013-02-09 01:42:00,
2013-02-08 20:52:00,31.0,26.0,29.93,North,355,5.0,13.0,82,0.00,,,0.12,,2013-02-09 01:52:00,
2013-02-08 21:01:00,31.0,26.0,29.93,WSW,253,4.0,13.0,83,0.00,,,0.12,,2013-02-09 02:01:00,
2013-02-08 21:11:00,31.0,26.0,29.93,SSW,208,3.0,7.0,81,0.00,,,0.12,,2013-02-09 02:11:00,
2013-02-08 21:22:00,31.0,26.0,29.93,SSW,208,3.0,7.0,81,0.00,,,0.12,,2013-02-09 02:22:00,
2013-02-08 21:32:00,30.0,25.0,29.94,SW,225,2.0,10.0,80,0.00,,,0.05,,2013-02-09 02:32:00,
2013-02-08 21:42:00,30.0,25.0,29.94,SW,225,2.0,10.0,80,0.00,,,0.05,,2013-02-09 02:42:00,
2013-02-08 21:53:00,30.0,25.0,29.95,West,269,5.0,12.0,81,0.00,,,0.05,,2013-02-09 02:53:00,
2013-02-08 22:02:00,30.0,25.0,29.96,ENE,59,1.0,10.0,81,0.00,,,0.05,,2013-02-09 03:02:00,
2013-02-08 22:11:00,30.0,25.0,29.96,ENE,59,1.0,10.0,81,0.00,,,0.05,,2013-02-09 03:11:00,
2013-02-08 22:22:00,30.0,25.0,29.96,SW,226,3.0,8.0,80,0.00,,,0.05,,2013-02-09 03:22:00,
2013-02-08 22:32:00,30.0,25.0,29.96,WSW,241,1.0,8.0,80,0.00,,,0.01,,2013-02-09 03:32:00,
2013-02-08 22:42:00,30.0,25.0,29.96,WSW,241,1.0,8.0,80,0.00,,,0.01,,2013-02-09 03:42:00,
2013-02-08 22:53:00,30.0,24.0,29.96,WNW,299,1.0,8.0,77,0.00,,,0.01,,2013-02-09 03:53:00,
2013-02-08 23:03:00,30.0,23.0,29.96,NW,321,3.0,9.0,75,0.00,,,0.01,,2013-02-09 04:03:00,
2013-02-08 23:12:00,30.0,23.0,29.96,NW,305,1.0,9.0,74,0.00,,,0.01,,2013-02-09 04:12:00,
2013-02-08 23:23:00,30.0,23.0,29.96,NW,305,1.0,9.0,74,0.00,,,0.01,,2013-02-09 04:23:00,
2013-02-08 23:32:00,30.0,23.0,29.96,WNW,282,2.0,7.0,75,0.00,,,0.01,,2013-02-09 04:32:00,
2013-02-08 23:42:00,30.0,23.0,29.96,WNW,282,2.0,7.0,75,0.00,,,0.01,,2013-02-09 04:42:00,
2013-02-08 23:52:00,30.0,22.0,29.96,West,269,2.0,8.0,73,0.00,,,0.01,,2013-02-09 04:52:00,